Shoreacres, Texas
Current Conditions -  °F | °C
As of 11:50 AM on Sunday 25 Jan 2015 (Local Time) from KEFD Reporting Station
Few Clouds Few Clouds  
Wind Chill: 17°   Ceiling: Unl
Heat Index: 17°   Visibility: 10mi
Dew Point:   Wind: 12mph
Humidity: 42%   Direction: 280°W
Pressure: 30.06"   Gusts: NA
Location:  29.6785°N, 95.0483°W
Report Text: KEFD 251750Z 28010KT 10SM FEW250 17/04 A3006
Loading
Personal Weather Stations






























Interactive Weather Map New forecast layout! Learn more

10-Day Weather Forecast

Advertisements
Track Severe Weather on mobile